Time;durP1;ratioP1;P1;durP2;ratioP2;P2;SDS_P1;SDS_P2;PMS_P1;PMS_P2;Temp;Humidity;BMP_temperature;BMP_pressure;BME280_temperature;BME280_humidity;BME280_pressure;Samples;Min_cycle;Max_cycle;Signal;HPM_P1;HPM_P2
2022/12/04 00:02:25;;;;;;;23.90;15.82;;;6.00;99.90;;;;;;5072326;28;20020;-85
2022/12/04 00:04:51;;;;;;;23.48;15.23;;;6.00;99.90;;;;;;5072877;28;20052;-85
2022/12/04 00:07:16;;;;;;;22.00;14.85;;;5.90;99.90;;;;;;5072854;28;20025;-85
2022/12/04 00:09:42;;;;;;;20.77;14.13;;;6.00;99.90;;;;;;5071351;28;20028;-85
2022/12/04 00:12:08;;;;;;;20.38;13.57;;;5.90;99.90;;;;;;5085974;28;20028;-85
2022/12/04 00:14:33;;;;;;;20.80;13.35;;;5.80;99.90;;;;;;5072958;28;20095;-85
2022/12/04 00:16:59;;;;;;;22.15;14.30;;;5.80;99.90;;;;;;5073068;28;20016;-85
2022/12/04 00:19:25;;;;;;;21.75;14.07;;;5.70;99.90;;;;;;5072416;28;20037;-85
2022/12/04 00:21:51;;;;;;;18.52;13.05;;;5.70;99.90;;;;;;5071100;28;20044;-85
2022/12/04 00:24:17;;;;;;;21.98;13.65;;;5.80;99.90;;;;;;5071041;28;20033;-84
2022/12/04 00:26:42;;;;;;;21.60;13.85;;;5.70;99.90;;;;;;5077870;28;20539;-85
2022/12/04 00:29:08;;;;;;;19.15;13.75;;;5.70;99.90;;;;;;5079292;28;20040;-85
2022/12/04 00:31:34;;;;;;;18.20;12.63;;;5.80;99.90;;;;;;5072318;28;20032;-85
2022/12/04 00:34:00;;;;;;;23.40;14.25;;;5.80;99.90;;;;;;5072378;28;20019;-86
2022/12/04 00:36:27;;;;;;;21.00;13.77;;;5.80;99.90;;;;;;5072054;28;20555;-86
2022/12/04 00:38:54;;;;;;;24.30;15.45;;;5.90;99.90;;;;;;5084569;28;20040;-86
2022/12/04 00:41:22;;;;;;;22.50;14.65;;;5.80;99.90;;;;;;5087043;28;20028;-87
2022/12/04 00:43:48;;;;;;;20.30;13.90;;;5.80;99.90;;;;;;5072445;28;20028;-87
2022/12/04 00:46:14;;;;;;;20.65;13.77;;;5.60;99.90;;;;;;5072416;28;20017;-87
2022/12/04 00:48:40;;;;;;;21.00;14.25;;;5.60;99.90;;;;;;5070630;28;20107;-87
2022/12/04 00:51:13;;;;;;;26.52;15.85;;;5.70;99.90;;;;;;5058751;28;20035;-86
2022/12/04 00:53:39;;;;;;;22.55;14.60;;;5.70;99.90;;;;;;5071999;28;20020;-86
2022/12/04 00:56:08;;;;;;;26.15;16.27;;;5.60;99.90;;;;;;5072071;28;20050;-86
2022/12/04 00:58:34;;;;;;;22.83;15.15;;;5.70;99.90;;;;;;5070386;28;20039;-86
2022/12/04 01:01:06;;;;;;;23.77;15.52;;;5.60;99.90;;;;;;5079539;28;20486;-85
2022/12/04 01:03:32;;;;;;;26.35;15.57;;;5.60;99.90;;;;;;5086930;28;20020;-86
2022/12/04 01:05:58;;;;;;;22.63;15.10;;;5.50;99.90;;;;;;5082958;28;20100;-85
2022/12/04 01:08:24;;;;;;;21.65;14.38;;;5.60;99.90;;;;;;5071634;28;20154;-85
2022/12/04 01:10:50;;;;;;;24.48;15.60;;;5.70;99.90;;;;;;5072037;28;20028;-85
2022/12/04 01:13:16;;;;;;;25.10;15.07;;;5.40;99.90;;;;;;5069946;28;20025;-85
2022/12/04 01:15:46;;;;;;;24.67;14.95;;;5.50;99.90;;;;;;5071873;28;20044;-85
2022/12/04 01:18:13;;;;;;;23.10;14.80;;;5.60;99.90;;;;;;5071404;28;20042;-85
2022/12/04 01:20:39;;;;;;;20.85;13.90;;;5.60;99.90;;;;;;5071710;28;20160;-85
2022/12/04 01:23:05;;;;;;;19.55;12.98;;;5.50;99.90;;;;;;5070265;28;20025;-85
2022/12/04 01:25:31;;;;;;;18.88;13.10;;;5.50;99.90;;;;;;5071551;28;20048;-85
2022/12/04 01:27:56;;;;;;;18.33;12.73;;;5.50;99.90;;;;;;5071301;28;20104;-85
2022/12/04 01:30:22;;;;;;;20.35;13.40;;;5.40;99.90;;;;;;5071587;28;20041;-85
2022/12/04 01:32:49;;;;;;;20.25;13.35;;;5.40;99.90;;;;;;5071481;28;20025;-85
2022/12/04 01:35:14;;;;;;;19.20;13.23;;;5.40;99.90;;;;;;5071083;28;20052;-85
2022/12/04 01:37:40;;;;;;;20.25;13.25;;;5.40;99.90;;;;;;5071228;28;20055;-85
2022/12/04 01:40:07;;;;;;;22.67;14.25;;;5.50;99.90;;;;;;5071284;28;20036;-85
2022/12/04 01:42:33;;;;;;;23.15;14.93;;;5.30;99.90;;;;;;5069711;28;20039;-85
2022/12/04 01:45:30;;;;;;;20.70;13.73;;;5.30;99.90;;;;;;5071174;28;20025;-86
2022/12/04 01:47:59;;;;;;;20.30;12.60;;;5.30;99.90;;;;;;5061517;28;20603;-85
2022/12/04 01:50:25;;;;;;;21.90;13.43;;;5.30;99.90;;;;;;5070481;28;20103;-86
2022/12/04 01:52:51;;;;;;;19.77;12.45;;;5.20;99.90;;;;;;5078226;28;20577;-86
2022/12/04 01:55:17;;;;;;;18.52;12.02;;;5.10;99.90;;;;;;5090230;28;20031;-85
2022/12/04 01:57:44;;;;;;;18.67;12.15;;;5.20;99.90;;;;;;5070910;28;20039;-86
2022/12/04 02:00:15;;;;;;;18.85;12.73;;;5.30;99.90;;;;;;5071076;28;20630;-85
2022/12/04 02:02:46;;;;;;;19.15;11.88;;;5.20;99.90;;;;;;5070898;28;20107;-85
2022/12/04 02:05:19;;;;;;;20.67;12.93;;;5.20;99.90;;;;;;5073003;28;20036;-85
2022/12/04 02:07:49;;;;;;;19.73;12.20;;;5.20;99.90;;;;;;5080823;28;20032;-85
2022/12/04 02:10:16;;;;;;;18.40;12.15;;;5.10;99.90;;;;;;5071281;28;20074;-85
2022/12/04 02:13:00;;;;;;;18.02;11.68;;;5.10;99.90;;;;;;5069415;28;20078;-85
2022/12/04 02:15:35;;;;;;;17.35;11.10;;;5.10;99.90;;;;;;5077320;28;20105;-85
2022/12/04 02:18:30;;;;;;;15.68;10.90;;;5.20;99.90;;;;;;5076703;28;20032;-85
2022/12/04 02:20:59;;;;;;;19.05;11.52;;;5.20;99.90;;;;;;5070571;28;20059;-85
2022/12/04 02:23:24;;;;;;;18.65;12.70;;;5.30;99.90;;;;;;5070493;28;20040;-86
2022/12/04 02:26:00;;;;;;;21.88;12.93;;;5.30;99.90;;;;;;5073104;28;20053;-86
2022/12/04 02:29:03;;;;;;;20.25;14.50;;;5.20;99.90;;;;;;5073765;28;20098;-86
2022/12/04 02:32:02;;;;;;;26.20;15.85;;;5.20;99.90;;;;;;5048414;28;20075;-85
2022/12/04 02:34:38;;;;;;;24.92;14.98;;;5.20;99.90;;;;;;5070111;28;20033;-85
2022/12/04 02:37:29;;;;;;;22.55;15.30;;;5.10;99.90;;;;;;5079179;28;20111;-85
2022/12/04 02:40:03;;;;;;;24.10;15.00;;;5.00;99.90;;;;;;5062690;28;20054;-85
2022/12/04 02:42:37;;;;;;;31.13;15.73;;;4.90;99.90;;;;;;5073012;28;20039;-85
2022/12/04 02:45:09;;;;;;;21.15;13.98;;;4.90;99.90;;;;;;5073409;28;20024;-85
2022/12/04 02:47:38;;;;;;;24.30;14.85;;;4.90;99.90;;;;;;5074558;28;20029;-85
2022/12/04 02:50:08;;;;;;;21.88;13.98;;;4.90;99.90;;;;;;5074185;28;20493;-86
2022/12/04 02:52:41;;;;;;;18.92;13.40;;;4.90;99.90;;;;;;5074135;28;20021;-86
2022/12/04 02:55:16;;;;;;;19.30;13.07;;;4.90;99.90;;;;;;5087186;28;20013;-86
2022/12/04 02:57:48;;;;;;;20.70;13.45;;;4.90;99.90;;;;;;5060165;28;20021;-86
2022/12/04 03:00:14;;;;;;;19.42;13.13;;;4.90;99.90;;;;;;5073914;28;20027;-85
2022/12/04 03:02:46;;;;;;;22.05;13.27;;;5.00;99.90;;;;;;5074041;28;20025;-85
2022/12/04 03:05:17;;;;;;;20.75;12.93;;;4.90;99.90;;;;;;5075669;28;20168;-85
2022/12/04 03:07:51;;;;;;;20.40;13.27;;;4.90;99.90;;;;;;5082906;28;20033;-85
2022/12/04 03:10:25;;;;;;;19.20;11.63;;;5.00;99.90;;;;;;5073838;28;20020;-85
2022/12/04 03:13:00;;;;;;;18.02;11.82;;;5.00;99.90;;;;;;5073440;28;20024;-85
2022/12/04 03:15:31;;;;;;;20.10;11.57;;;5.00;99.90;;;;;;5086967;28;20103;-85
2022/12/04 03:18:19;;;;;;;18.55;11.90;;;4.90;99.90;;;;;;5073835;28;20025;-85
2022/12/04 03:20:49;;;;;;;19.73;11.38;;;4.90;99.90;;;;;;5073543;28;20032;-85
2022/12/04 03:23:28;;;;;;;15.73;10.57;;;4.90;99.90;;;;;;5075633;28;20060;-85
2022/12/04 03:26:09;;;;;;;16.83;11.35;;;4.80;99.90;;;;;;5072496;28;20285;-85
2022/12/04 03:28:58;;;;;;;16.17;10.57;;;4.80;99.90;;;;;;5061789;28;20520;-85
2022/12/04 03:31:53;;;;;;;15.52;9.98;;;4.70;99.90;;;;;;5049013;28;20144;-85
2022/12/04 03:34:34;;;;;;;17.25;10.27;;;4.80;99.90;;;;;;4994774;28;20128;-85
2022/12/04 03:37:06;;;;;;;17.13;9.82;;;4.70;99.90;;;;;;5011129;28;20041;-85
2022/12/04 03:39:42;;;;;;;14.30;9.27;;;4.70;99.90;;;;;;5011502;28;20496;-85
2022/12/04 03:42:28;;;;;;;13.43;8.80;;;4.50;99.90;;;;;;5011131;28;20032;-85
2022/12/04 03:45:00;;;;;;;14.55;9.93;;;4.50;99.90;;;;;;5000573;28;20141;-85
2022/12/04 03:47:51;;;;;;;14.52;9.65;;;4.50;99.90;;;;;;5014089;28;20032;-85
2022/12/04 03:50:34;;;;;;;16.77;10.82;;;4.40;99.90;;;;;;5017983;28;20533;-85
2022/12/04 03:53:35;;;;;;;20.15;12.35;;;4.40;99.90;;;;;;5000445;28;20129;-84
2022/12/04 03:56:13;;;;;;;20.02;12.02;;;4.40;99.90;;;;;;4990536;28;20511;-84
2022/12/04 03:58:44;;;;;;;22.00;13.07;;;4.30;99.90;;;;;;5011245;28;20034;-84
2022/12/04 04:01:11;;;;;;;;;;;4.40;99.90;;;;;;4994925;28;20166;-85
2022/12/04 04:03:43;;;;;;;21.63;13.65;;;4.20;99.90;;;;;;5013234;28;19909;-84
2022/12/04 04:06:13;;;;;;;20.30;12.70;;;4.30;99.90;;;;;;5030900;28;20494;-84
2022/12/04 04:08:42;;;;;;;18.30;11.43;;;4.30;99.90;;;;;;5012866;28;20030;-85
2022/12/04 04:11:19;;;;;;;16.30;11.73;;;4.30;99.90;;;;;;5031912;28;20114;-84
2022/12/04 04:25:16;;;;;;;16.40;9.75;;;4.00;99.90;;;;;;5072678;28;20036;-84
2022/12/04 04:27:53;;;;;;;18.17;11.02;;;4.00;99.90;;;;;;5072745;28;20030;-84
2022/12/04 04:30:20;;;;;;;18.90;11.00;;;3.90;99.90;;;;;;5072310;28;20024;-84
2022/12/04 04:33:10;;;;;;;16.08;10.25;;;3.90;99.90;;;;;;5084859;28;20024;-84
2022/12/04 04:36:01;;;;;;;16.75;11.05;;;3.90;99.90;;;;;;5072601;28;20066;-85
2022/12/04 04:38:44;;;;;;;14.48;9.88;;;4.00;99.90;;;;;;5061516;28;20031;-85
2022/12/04 04:41:25;;;;;;;15.55;10.05;;;4.00;99.90;;;;;;5085794;28;20024;-85
2022/12/04 04:44:01;;;;;;;16.45;9.77;;;4.00;99.90;;;;;;5073794;28;20025;-85
2022/12/04 04:46:33;;;;;;;13.45;9.52;;;4.00;99.90;;;;;;5071980;28;20036;-85
2022/12/04 04:49:03;;;;;;;14.88;9.18;;;3.80;99.90;;;;;;5070858;28;20052;-84
2022/12/04 04:51:32;;;;;;;15.68;9.93;;;3.60;99.90;;;;;;5087425;28;20327;-83
2022/12/04 04:54:03;;;;;;;14.73;9.82;;;3.70;99.90;;;;;;5070360;28;20159;-84
2022/12/04 04:56:29;;;;;;;16.05;10.05;;;3.70;99.90;;;;;;5087152;28;20035;-84
2022/12/04 04:58:55;;;;;;;13.77;9.35;;;3.70;99.90;;;;;;5071891;28;20075;-84
2022/12/04 05:01:25;;;;;;;14.32;9.70;;;3.70;99.90;;;;;;5071581;28;20410;-84
2022/12/04 05:03:51;;;;;;;15.48;9.27;;;3.70;99.90;;;;;;5071515;28;20025;-85
2022/12/04 05:06:17;;;;;;;14.57;9.63;;;3.70;99.90;;;;;;5072062;28;20398;-84
2022/12/04 05:08:43;;;;;;;13.88;9.00;;;3.60;99.90;;;;;;5088558;28;20024;-85
2022/12/04 05:11:13;;;;;;;14.15;9.30;;;3.60;99.90;;;;;;5091666;28;20020;-84
2022/12/04 05:13:39;;;;;;;12.82;8.68;;;3.60;99.90;;;;;;5084652;28;20016;-84
2022/12/04 05:16:09;;;;;;;15.35;9.48;;;3.50;99.90;;;;;;5071300;28;20024;-84
2022/12/04 05:18:35;;;;;;;13.77;9.20;;;3.50;99.90;;;;;;5071480;28;20025;-84
2022/12/04 05:21:14;;;;;;;12.80;8.98;;;3.50;99.90;;;;;;5087044;28;20028;-84
2022/12/04 05:23:40;;;;;;;15.82;9.43;;;3.50;99.90;;;;;;5071111;28;20090;-84
2022/12/04 05:26:05;;;;;;;15.25;9.75;;;3.60;99.90;;;;;;5072536;28;20518;-84
2022/12/04 05:28:31;;;;;;;13.88;9.02;;;3.60;99.90;;;;;;5089978;28;20410;-84
2022/12/04 05:30:59;;;;;;;15.77;10.15;;;3.60;99.90;;;;;;5091934;28;20078;-85
2022/12/04 05:33:25;;;;;;;13.18;8.63;;;3.60;99.90;;;;;;5091266;28;20028;-85
2022/12/04 05:36:03;;;;;;;13.38;8.35;;;3.60;99.90;;;;;;5089934;28;20405;-85
2022/12/04 05:38:29;;;;;;;14.43;9.02;;;3.50;99.90;;;;;;5091053;28;20024;-84
2022/12/04 05:40:57;;;;;;;14.95;8.95;;;3.50;99.90;;;;;;5090348;28;20077;-84
2022/12/04 05:43:22;;;;;;;12.23;8.23;;;3.40;99.90;;;;;;5089371;28;20039;-84
2022/12/04 05:45:48;;;;;;;14.65;9.57;;;3.40;99.90;;;;;;5090977;28;20020;-83
2022/12/04 05:48:14;;;;;;;14.05;9.43;;;3.40;99.90;;;;;;5078667;28;20687;-84
2022/12/04 05:50:40;;;;;;;11.60;8.13;;;3.50;99.90;;;;;;5070790;28;20504;-83
2022/12/04 05:53:05;;;;;;;11.48;8.07;;;3.50;99.90;;;;;;5070790;28;20398;-84
2022/12/04 05:55:31;;;;;;;13.23;9.25;;;3.50;99.90;;;;;;5070916;28;20508;-83
2022/12/04 05:57:57;;;;;;;12.68;9.00;;;3.50;99.90;;;;;;5070457;28;20031;-83
2022/12/04 06:00:22;;;;;;;13.23;7.90;;;3.40;99.90;;;;;;5068599;28;20020;-83
2022/12/04 06:02:48;;;;;;;15.18;9.57;;;3.40;99.90;;;;;;5071221;28;20040;-83
2022/12/04 06:05:14;;;;;;;14.63;8.93;;;3.30;99.90;;;;;;5070564;28;20032;-84
2022/12/04 06:07:40;;;;;;;15.70;9.48;;;3.20;99.90;;;;;;5086422;28;20493;-84
2022/12/04 06:10:06;;;;;;;13.63;9.10;;;3.00;99.90;;;;;;5070422;28;20083;-83
2022/12/04 06:12:32;;;;;;;16.08;10.23;;;3.10;99.90;;;;;;5070095;28;20112;-83
2022/12/04 06:14:57;;;;;;;14.10;8.77;;;3.10;99.90;;;;;;5084361;28;20556;-83
2022/12/04 06:17:23;;;;;;;14.27;8.98;;;3.00;99.90;;;;;;5090421;28;20031;-83
2022/12/04 06:19:49;;;;;;;16.15;10.18;;;2.90;99.90;;;;;;5089181;28;20088;-82
2022/12/04 06:22:15;;;;;;;13.85;9.05;;;3.00;99.90;;;;;;5090693;28;20516;-82
2022/12/04 06:24:40;;;;;;;14.18;8.82;;;3.10;99.90;;;;;;5089113;28;20028;-82
2022/12/04 06:27:06;;;;;;;12.65;8.85;;;3.20;99.90;;;;;;5090619;28;20043;-82
2022/12/04 06:29:32;;;;;;;13.77;8.50;;;3.10;99.90;;;;;;5090374;28;20040;-82
2022/12/04 06:31:57;;;;;;;13.30;8.57;;;3.00;99.90;;;;;;5090613;28;20020;-82
2022/12/04 06:34:23;;;;;;;14.93;9.05;;;3.00;99.90;;;;;;5090545;28;20021;-82
2022/12/04 06:36:49;;;;;;;11.93;8.23;;;3.00;99.90;;;;;;5090764;28;20028;-82
2022/12/04 06:39:14;;;;;;;12.40;8.75;;;3.00;99.90;;;;;;5074910;28;20424;-82
2022/12/04 06:41:40;;;;;;;14.20;9.00;;;3.10;99.90;;;;;;5069853;28;20397;-82
2022/12/04 06:44:06;;;;;;;12.32;8.15;;;3.20;99.90;;;;;;5070297;28;20406;-83
2022/12/04 06:46:32;;;;;;;14.35;8.15;;;3.30;99.90;;;;;;5070674;28;20444;-82
2022/12/04 06:49:00;;;;;;;15.45;8.55;;;3.20;99.90;;;;;;5059164;28;20129;-82
2022/12/04 06:51:33;;;;;;;12.65;7.85;;;3.20;99.90;;;;;;5090858;28;20024;-82
2022/12/04 06:53:59;;;;;;;11.45;7.80;;;3.20;99.90;;;;;;5090329;28;20073;-82
2022/12/04 06:56:27;;;;;;;12.65;8.70;;;3.20;99.90;;;;;;5090423;28;20024;-82
2022/12/04 06:58:55;;;;;;;14.20;8.95;;;3.30;99.90;;;;;;5089947;28;20044;-83
2022/12/04 07:01:23;;;;;;;16.02;9.50;;;3.20;99.90;;;;;;5069773;28;20029;-83
2022/12/04 07:03:50;;;;;;;13.90;9.05;;;3.00;99.90;;;;;;5069785;28;20050;-83
2022/12/04 07:06:23;;;;;;;14.52;9.27;;;3.10;99.90;;;;;;5070094;28;20025;-83
2022/12/04 07:08:51;;;;;;;15.68;9.52;;;3.00;99.90;;;;;;5068628;28;20048;-83
2022/12/04 07:11:17;;;;;;;16.52;10.20;;;2.90;99.90;;;;;;5086464;28;20036;-82
2022/12/04 07:13:43;;;;;;;13.60;9.27;;;2.90;99.90;;;;;;5081847;28;20046;-82
2022/12/04 07:16:13;;;;;;;12.30;8.65;;;2.80;99.90;;;;;;5079563;28;20102;-82
2022/12/04 07:18:40;;;;;;;13.57;9.32;;;3.00;99.90;;;;;;5092438;28;20028;-82
2022/12/04 07:21:08;;;;;;;14.70;9.10;;;3.00;99.90;;;;;;5093821;28;20023;-82
2022/12/04 07:23:35;;;;;;;11.45;7.85;;;3.10;99.90;;;;;;5092586;28;20100;-82
2022/12/04 07:26:09;;;;;;;12.35;8.63;;;3.20;99.90;;;;;;5093381;28;20040;-82
2022/12/04 07:28:36;;;;;;;12.27;8.23;;;3.10;99.90;;;;;;5093426;28;20028;-82
2022/12/04 07:31:23;;;;;;;12.55;8.43;;;3.10;99.90;;;;;;5094047;28;20024;-82
2022/12/04 07:33:49;;;;;;;13.48;8.95;;;3.10;99.90;;;;;;5093365;28;20055;-82
2022/12/04 07:36:18;;;;;;;11.82;7.65;;;3.00;99.90;;;;;;5093476;28;20566;-82
2022/12/04 07:38:44;;;;;;;12.52;8.00;;;3.10;99.90;;;;;;5091444;28;20024;-82
2022/12/04 07:41:11;;;;;;;11.55;8.10;;;3.10;99.90;;;;;;5093265;28;20556;-82
2022/12/04 07:43:38;;;;;;;11.38;7.80;;;3.10;99.90;;;;;;5092162;28;20086;-82
2022/12/04 07:46:07;;;;;;;11.57;8.05;;;3.00;99.90;;;;;;5074937;28;20073;-82
2022/12/04 07:48:33;;;;;;;12.18;8.55;;;3.10;99.90;;;;;;5073111;28;20075;-82
2022/12/04 07:51:11;;;;;;;11.27;7.70;;;3.10;99.90;;;;;;5072743;28;20025;-82
2022/12/04 07:53:37;;;;;;;13.48;9.15;;;3.00;99.90;;;;;;5072904;28;20031;-81
2022/12/04 07:56:04;;;;;;;12.70;8.95;;;3.10;99.90;;;;;;5073295;28;20055;-81
2022/12/04 07:58:30;;;;;;;12.95;8.73;;;3.00;99.90;;;;;;5071634;28;20033;-81
2022/12/04 08:01:04;;;;;;;12.68;8.45;;;3.10;99.90;;;;;;5073381;28;20111;-81
2022/12/04 08:03:30;;;;;;;12.63;8.27;;;3.20;99.90;;;;;;5072373;28;20056;-81
2022/12/04 08:05:59;;;;;;;11.27;7.55;;;3.20;99.90;;;;;;5071117;28;20068;-81
2022/12/04 08:08:25;;;;;;;11.07;7.85;;;3.20;99.90;;;;;;5072665;28;20027;-81
2022/12/04 08:10:51;;;;;;;13.80;9.00;;;3.20;99.90;;;;;;5080256;28;20409;-80
2022/12/04 08:13:16;;;;;;;12.75;8.60;;;3.20;99.90;;;;;;5079067;28;20505;-80
2022/12/04 08:15:42;;;;;;;13.45;8.95;;;3.20;99.90;;;;;;5072738;28;20063;-80
2022/12/04 08:18:08;;;;;;;11.50;7.72;;;3.40;99.90;;;;;;5070798;28;20031;-80
2022/12/04 08:20:33;;;;;;;12.20;8.50;;;3.40;99.90;;;;;;5072357;28;20060;-80
2022/12/04 08:22:59;;;;;;;12.30;8.23;;;3.40;99.90;;;;;;5070923;28;20033;-80
2022/12/04 08:25:25;;;;;;;13.20;8.25;;;3.40;99.90;;;;;;5072338;28;20044;-79
2022/12/04 08:27:50;;;;;;;11.93;8.35;;;3.30;99.90;;;;;;5072415;28;20469;-80
2022/12/04 08:30:16;;;;;;;14.77;9.25;;;3.30;99.90;;;;;;5072001;28;20505;-80
2022/12/04 08:32:42;;;;;;;13.48;8.77;;;3.70;99.90;;;;;;5071867;28;20031;-80
2022/12/04 08:35:08;;;;;;;14.45;10.02;;;3.60;99.90;;;;;;5072012;28;20020;-80
2022/12/04 08:37:33;;;;;;;15.45;10.35;;;3.50;99.90;;;;;;5070142;28;20020;-80
2022/12/04 08:39:59;;;;;;;15.75;10.23;;;3.80;99.90;;;;;;5071884;28;20028;-80
2022/12/04 08:42:25;;;;;;;13.98;9.75;;;4.00;99.90;;;;;;5071528;28;20028;-79
2022/12/04 08:44:50;;;;;;;15.25;9.18;;;4.30;99.90;;;;;;5071790;28;20526;-79
2022/12/04 08:47:16;;;;;;;17.25;11.07;;;4.80;99.90;;;;;;5075932;28;20060;-82
2022/12/04 08:49:41;;;;;;;16.30;10.90;;;5.40;99.90;;;;;;5079680;28;20550;-81
2022/12/04 08:52:07;;;;;;;17.50;11.43;;;5.90;99.90;;;;;;5075633;28;20455;-81
2022/12/04 08:54:33;;;;;;;18.58;11.82;;;5.60;99.90;;;;;;5069555;28;20025;-79
2022/12/04 08:56:59;;;;;;;20.02;12.52;;;5.50;99.90;;;;;;5070962;28;20039;-80
2022/12/04 08:59:24;;;;;;;19.42;12.73;;;4.70;99.90;;;;;;5070769;28;20122;-79
2022/12/04 09:01:50;;;;;;;19.77;13.52;;;4.80;99.90;;;;;;5070656;28;20275;-79
2022/12/04 09:04:16;;;;;;;22.98;15.60;;;5.50;99.90;;;;;;5070328;28;20024;-79
2022/12/04 09:06:42;;;;;;;21.98;14.65;;;5.10;99.90;;;;;;5070297;28;20025;-79
2022/12/04 09:09:08;;;;;;;22.23;15.65;;;4.70;99.90;;;;;;5070408;28;20562;-79
2022/12/04 09:11:33;;;;;;;24.77;16.85;;;4.40;99.90;;;;;;5070248;28;20516;-79
2022/12/04 09:14:01;;;;;;;23.77;16.05;;;4.00;99.90;;;;;;5074624;28;20026;-79
2022/12/04 09:16:27;;;;;;;22.10;15.25;;;4.00;99.90;;;;;;5090412;28;20035;-79
2022/12/04 09:18:54;;;;;;;20.92;15.27;;;4.30;99.90;;;;;;5075514;28;20027;-80
2022/12/04 09:21:21;;;;;;;20.45;14.20;;;4.40;99.90;;;;;;5064365;28;20154;-79
2022/12/04 09:23:48;;;;;;;19.42;13.52;;;4.40;99.90;;;;;;5069027;28;20058;-79
2022/12/04 09:26:23;;;;;;;20.17;13.60;;;4.30;99.90;;;;;;5068878;28;20315;-79
2022/12/04 09:28:49;;;;;;;21.40;14.18;;;4.40;99.90;;;;;;5069606;28;20025;-81
2022/12/04 09:31:16;;;;;;;17.45;13.15;;;4.70;99.90;;;;;;5071931;28;20123;-80
2022/12/04 09:33:42;;;;;;;17.75;13.13;;;4.70;99.90;;;;;;5080679;28;20103;-82
2022/12/04 09:36:14;;;;;;;17.85;11.90;;;4.70;99.90;;;;;;5068562;28;20039;-82
2022/12/04 09:38:42;;;;;;;19.50;13.20;;;4.90;99.90;;;;;;5068648;28;20021;-82
2022/12/04 09:41:36;;;;;;;21.52;13.52;;;5.00;99.90;;;;;;5068674;28;20115;-82
2022/12/04 09:44:09;;;;;;;16.75;10.82;;;5.00;99.90;;;;;;5068925;28;20099;-82
2022/12/04 09:46:39;;;;;;;17.13;11.93;;;5.20;99.90;;;;;;5057050;28;20033;-82
2022/12/04 09:49:16;;;;;;;19.33;12.68;;;5.30;99.90;;;;;;5084293;28;20104;-82
2022/12/04 09:51:42;;;;;;;18.85;12.25;;;5.40;99.90;;;;;;5060788;28;20052;-83
2022/12/04 09:54:20;;;;;;;18.10;13.02;;;5.40;99.90;;;;;;5069054;28;20021;-83
2022/12/04 09:57:01;;;;;;;18.30;12.45;;;5.20;99.90;;;;;;5062193;28;20047;-83
2022/12/04 09:59:30;;;;;;;18.40;12.40;;;5.50;99.90;;;;;;5069722;28;20157;-83
2022/12/04 10:02:22;;;;;;;18.52;12.80;;;5.60;99.90;;;;;;5069503;28;20032;-84
2022/12/04 10:04:48;;;;;;;16.35;10.65;;;5.40;99.90;;;;;;5066854;28;20228;-83
2022/12/04 10:07:43;;;;;;;17.85;11.98;;;5.60;99.90;;;;;;5069184;28;20530;-82
2022/12/04 10:10:23;;;;;;;19.48;13.07;;;5.50;99.90;;;;;;5069072;28;20036;-83
2022/12/04 10:12:54;;;;;;;19.92;12.57;;;5.30;99.90;;;;;;5069449;28;20038;-82
2022/12/04 10:15:32;;;;;;;20.15;13.73;;;5.40;99.90;;;;;;5070607;28;20016;-82
2022/12/04 10:18:09;;;;;;;18.85;13.40;;;5.40;99.90;;;;;;5082718;28;20020;-82
2022/12/04 10:21:15;;;;;;;18.65;13.88;;;5.70;99.90;;;;;;5078310;28;20063;-82
2022/12/04 10:23:59;;;;;;;19.73;13.40;;;5.50;99.90;;;;;;5069414;28;20030;-83
2022/12/04 10:26:29;;;;;;;19.38;12.98;;;5.40;99.90;;;;;;5069104;28;20041;-83
2022/12/04 10:29:22;;;;;;;19.42;12.70;;;5.60;99.90;;;;;;5069684;28;20067;-83
2022/12/04 10:31:52;;;;;;;17.92;12.25;;;5.80;99.90;;;;;;5070416;28;20087;-83
2022/12/04 10:34:37;;;;;;;18.38;12.40;;;5.90;99.90;;;;;;5089008;28;20073;-84
2022/12/04 10:37:11;;;;;;;17.80;11.73;;;6.00;99.90;;;;;;5071766;28;20036;-83
2022/12/04 10:40:05;;;;;;;14.02;10.32;;;6.10;99.90;;;;;;5069341;28;20025;-84
2022/12/04 10:42:37;;;;;;;15.00;10.57;;;6.10;99.90;;;;;;5068947;28;20023;-84
2022/12/04 10:45:06;;;;;;;15.13;10.77;;;6.20;99.90;;;;;;5069071;28;20016;-84
2022/12/04 10:47:33;;;;;;;12.95;9.45;;;6.20;99.90;;;;;;5070852;28;20523;-84
2022/12/04 10:50:11;;;;;;;15.05;10.40;;;6.30;99.90;;;;;;5088443;28;20056;-84
2022/12/04 10:52:37;;;;;;;15.00;10.18;;;6.30;99.90;;;;;;5071395;28;20025;-84
2022/12/04 10:55:03;;;;;;;11.60;8.93;;;6.30;99.90;;;;;;5072656;28;20124;-84
2022/12/04 10:57:44;;;;;;;13.38;9.30;;;6.20;99.90;;;;;;5072389;28;20021;-84
2022/12/04 11:00:30;;;;;;;11.18;8.02;;;6.30;99.90;;;;;;5071547;28;20483;-84
2022/12/04 11:03:08;;;;;;;10.93;7.43;;;6.40;99.90;;;;;;5073114;28;20162;-84
2022/12/04 11:05:54;;;;;;;13.63;9.43;;;6.40;99.90;;;;;;5072730;28;20052;-84
2022/12/04 11:08:23;;;;;;;13.77;8.85;;;6.40;99.90;;;;;;5071924;28;20024;-84
2022/12/04 11:11:05;;;;;;;13.77;9.80;;;6.50;99.90;;;;;;5072740;28;20131;-84
2022/12/04 11:13:31;;;;;;;11.07;8.38;;;6.50;99.90;;;;;;5071409;28;20024;-84
2022/12/04 11:15:58;;;;;;;14.27;9.23;;;6.50;99.90;;;;;;5072964;28;20032;-85
2022/12/04 11:18:25;;;;;;;11.55;8.30;;;6.50;99.90;;;;;;5072106;28;20028;-84
2022/12/04 11:20:56;;;;;;;13.88;9.07;;;6.60;99.90;;;;;;5071726;28;20033;-84
2022/12/04 11:23:23;;;;;;;14.60;9.50;;;6.60;99.90;;;;;;5074657;28;20046;-86
2022/12/04 11:25:51;;;;;;;17.23;10.98;;;6.70;99.90;;;;;;5083992;28;20052;-87
2022/12/04 11:28:21;;;;;;;14.57;10.18;;;6.70;99.90;;;;;;5071996;28;20055;-85
2022/12/04 11:30:50;;;;;;;16.90;11.55;;;6.80;99.90;;;;;;5087766;28;20049;-85
2022/12/04 11:33:39;;;;;;;16.33;10.88;;;6.90;99.90;;;;;;5050413;28;20070;-84
2022/12/04 11:36:35;;;;;;;16.48;10.60;;;7.00;99.90;;;;;;5070758;28;20036;-85
2022/12/04 11:39:07;;;;;;;13.73;9.15;;;7.00;99.90;;;;;;5066029;28;20032;-85
2022/12/04 11:41:33;;;;;;;;;;;6.90;99.90;;;;;;5080470;28;20031;-84
2022/12/04 11:43:59;;;;;;;14.75;10.07;;;7.00;99.90;;;;;;5090247;28;19904;-84
2022/12/04 11:46:30;;;;;;;16.48;11.52;;;6.90;99.90;;;;;;5077881;28;20063;-84
2022/12/04 11:48:55;;;;;;;18.55;11.95;;;7.00;99.90;;;;;;5070547;28;20032;-84
2022/12/04 11:51:44;;;;;;;15.82;10.55;;;7.00;99.90;;;;;;5070576;28;20035;-84
2022/12/04 11:54:21;;;;;;;14.30;10.40;;;6.90;99.90;;;;;;5070693;28;20086;-84
2022/12/04 11:57:04;;;;;;;14.93;10.40;;;6.90;99.90;;;;;;5072236;28;20052;-83
2022/12/04 12:00:01;;;;;;;17.35;11.43;;;6.90;99.90;;;;;;5070560;28;20021;-83
2022/12/04 12:02:35;;;;;;;15.02;10.27;;;6.80;99.90;;;;;;5071357;28;20040;-83
2022/12/04 12:05:00;;;;;;;15.23;10.90;;;6.80;99.90;;;;;;5070438;28;20028;-84
2022/12/04 12:07:55;;;;;;;16.38;11.15;;;7.00;99.90;;;;;;5070472;28;20024;-85
2022/12/04 12:10:23;;;;;;;15.98;11.35;;;7.10;99.90;;;;;;5070940;28;20512;-86
2022/12/04 12:12:49;;;;;;;17.88;11.85;;;7.10;99.90;;;;;;5070882;28;20359;-86
2022/12/04 12:15:42;;;;;;;15.75;11.43;;;7.10;99.90;;;;;;5074379;28;20591;-86
2022/12/04 12:18:41;;;;;;;17.80;11.38;;;7.00;99.90;;;;;;5070633;28;20017;-85
2022/12/04 12:21:29;;;;;;;16.52;11.65;;;7.20;99.90;;;;;;5015081;28;20045;-86
2022/12/04 12:24:00;;;;;;;13.77;10.75;;;7.10;99.90;;;;;;4999719;28;20109;-85
2022/12/04 12:26:54;;;;;;;14.60;10.18;;;7.00;99.90;;;;;;5002663;28;20550;-86
2022/12/04 12:29:36;;;;;;;15.98;11.60;;;7.00;99.90;;;;;;4981360;28;20034;-85
2022/12/04 12:32:22;;;;;;;14.55;10.73;;;7.50;99.90;;;;;;5004438;28;20112;-85
2022/12/04 12:34:49;;;;;;;15.05;10.88;;;7.50;99.90;;;;;;4988860;28;20138;-85
2022/12/04 12:37:25;;;;;;;14.93;10.98;;;7.40;99.90;;;;;;4980533;28;20555;-85
2022/12/04 12:40:08;;;;;;;17.35;10.70;;;7.50;99.90;;;;;;4995348;28;20032;-85
2022/12/04 12:42:38;;;;;;;17.92;11.13;;;7.70;99.90;;;;;;4997617;28;20504;-85
2022/12/04 12:45:19;;;;;;;16.95;12.07;;;7.80;99.90;;;;;;5007740;28;20038;-86
2022/12/04 12:47:48;;;;;;;15.57;10.32;;;7.60;99.90;;;;;;5000697;28;20041;-85
2022/12/04 12:50:21;;;;;;;16.20;11.88;;;7.50;99.90;;;;;;5008057;28;20037;-85
2022/12/04 12:52:55;;;;;;;17.05;12.60;;;7.70;99.90;;;;;;5013916;28;20426;-85
2022/12/04 12:55:29;;;;;;;15.82;11.80;;;7.70;99.90;;;;;;4988865;28;20031;-85
2022/12/04 12:58:16;;;;;;;16.63;11.68;;;7.60;99.90;;;;;;5028692;28;20041;-85
2022/12/04 13:01:03;;;;;;;16.08;11.57;;;7.60;99.90;;;;;;5070458;28;20033;-85
2022/12/04 13:03:34;;;;;;;16.30;11.55;;;7.40;99.90;;;;;;5068959;28;20040;-85
2022/12/04 13:06:05;;;;;;;20.98;12.40;;;7.40;99.90;;;;;;5068270;28;20051;-85
2022/12/04 13:08:38;;;;;;;16.90;12.70;;;7.40;99.90;;;;;;5069549;28;20565;-85
2022/12/04 13:11:14;;;;;;;18.70;12.60;;;7.40;99.90;;;;;;5070432;28;20020;-85
2022/12/04 13:13:45;;;;;;;19.38;13.05;;;7.40;99.90;;;;;;5071851;28;20032;-85
2022/12/04 13:16:23;;;;;;;15.13;11.05;;;7.40;99.90;;;;;;5069940;28;20559;-85